Startpagina
METAR-TAF:

METAR-TAF

Vliegvelden :

Georgetown, Ascension

breedte: 07-58S, lengte: 014-24W, hoogte: 86 m

Actueel weer

Dit bericht is 23 uur en het 36 minuten geleden gemaakt, om 18:50 UTC
Wind 14 kt uit het zuidzuidoosten
Temperatuur 26°C
Vochtigheid 74%
Druk 1010 hPa
Zicht 10 km of meer
Verspreide wolken op 1800 ft

METAR: FHAW 221850Z 15014KT 9999 SCT018 26/21 Q1010 WHT NOSIG

Tijdstip: 18:26 (18:26 UTC)

Verwachting

Dit bericht is 25 uur en het 56 minuten geleden gemaakt, om 16:30 UTC
Verwachting geldig van 22 om 18 UTC tot 23 om 12 UTC
Wind 14 kt uit het zuidoosten
Zicht 10 km of meer
Weinig wolken op 1800 ft
Verspreide wolken op 3000 ft
Kans 30% :
Tijdelijke
van 22 om 22 UTC tot 23 om 09 UTC
Zicht: 6000 m
Gebroken wolken op 1200 ft
lichte regenbuien

TAF: FHAW 221630Z 2218/2312 14014KT 9999 FEW018 SCT030 PROB30 TEMPO 2222/2309 6000 -SHRA BKN012

Waarnemingen en weersverwachtingen van meer dan 4000 vliegvelden (METAR en TAF).

De beschikbare stations zijn de gele en rode punten op de kaart.

Ga met uw muis naar het station om de naam te zien.

Klik dan om waarnemingen en weersverwachtingen te zien.

kaart wijzigen: klik op de groene knoppen met een zwart kruis om in te zoomen, op de groene knop met een streepje om uit te zoomen of op de groene pijlen voor aangrenzende kaarten.


METAR-TAF: